Time;durP1;ratioP1;P1;durP2;ratioP2;P2;SDS_P1;SDS_P2;PMS_P1;PMS_P2;Temp;Humidity;BMP_temperature;BMP_pressure;BME280_temperature;BME280_humidity;BME280_pressure;Samples;Min_cycle;Max_cycle;Signal;HPM_P1;HPM_P2
2023/07/23 13:11:40;;;;;;;10.38;1.60;;;12.50;97.10;;;;;;5090583;28;20177;-71
2023/07/23 13:14:08;;;;;;;14.80;2.03;;;12.50;97.10;;;;;;5090812;28;20040;-72
2023/07/23 13:16:35;;;;;;;10.27;2.05;;;12.40;97.10;;;;;;5071728;28;20044;-71
2023/07/23 13:19:02;;;;;;;12.32;2.20;;;12.40;97.10;;;;;;5071610;28;20414;-71
2023/07/23 13:21:29;;;;;;;12.25;2.25;;;12.40;97.10;;;;;;5072115;28;20039;-71
2023/07/23 13:23:56;;;;;;;16.67;2.63;;;12.40;97.10;;;;;;5084313;28;20067;-70
2023/07/23 13:26:24;;;;;;;13.13;2.72;;;12.40;97.10;;;;;;5092163;28;20032;-70
2023/07/23 13:28:51;;;;;;;14.98;2.70;;;12.40;97.10;;;;;;5086992;28;20262;-70
2023/07/23 13:31:19;;;;;;;10.48;2.40;;;12.30;97.10;;;;;;5083626;28;20031;-70
2023/07/23 13:33:47;;;;;;;9.35;2.38;;;12.30;97.10;;;;;;5091013;28;20398;-70
2023/07/23 13:36:14;;;;;;;11.02;2.38;;;12.20;97.10;;;;;;5056441;28;20094;-69
2023/07/23 13:38:41;;;;;;;11.27;2.53;;;12.20;97.10;;;;;;5090287;28;20046;-70
2023/07/23 13:41:08;;;;;;;13.18;2.67;;;12.20;97.20;;;;;;5084247;28;20045;-70
2023/07/23 13:43:36;;;;;;;10.73;2.30;;;12.20;97.10;;;;;;5079854;28;20517;-70
2023/07/23 13:46:03;;;;;;;7.00;2.35;;;12.20;97.10;;;;;;5091746;28;20115;-70
2023/07/23 13:48:30;;;;;;;5.63;2.40;;;12.10;97.10;;;;;;5078221;28;20032;-70
2023/07/23 13:50:58;;;;;;;10.40;2.45;;;12.00;97.00;;;;;;5095087;28;20406;-69
2023/07/23 13:53:25;;;;;;;12.73;2.38;;;12.00;97.00;;;;;;5081860;28;20043;-70
2023/07/23 13:55:52;;;;;;;13.90;2.80;;;12.00;97.10;;;;;;5080567;28;20040;-70
2023/07/23 13:58:19;;;;;;;9.63;2.40;;;12.00;97.10;;;;;;5075563;28;20122;-70
2023/07/23 14:00:46;;;;;;;10.43;2.50;;;11.90;97.10;;;;;;5058085;28;20055;-71
2023/07/23 14:03:14;;;;;;;8.88;2.30;;;11.90;97.10;;;;;;5079908;28;20028;-71
2023/07/23 14:05:41;;;;;;;9.65;2.72;;;11.90;97.10;;;;;;5081372;28;20055;-70
2023/07/23 14:08:08;;;;;;;12.00;2.40;;;11.90;97.10;;;;;;5075528;28;20036;-70
2023/07/23 14:10:36;;;;;;;10.43;2.40;;;11.90;97.10;;;;;;5087296;28;20042;-70
2023/07/23 14:13:03;;;;;;;11.52;2.55;;;11.90;97.20;;;;;;5076894;28;20111;-70
2023/07/23 14:15:31;;;;;;;11.18;2.80;;;11.90;97.10;;;;;;5095016;28;20034;-70
2023/07/23 14:17:58;;;;;;;13.55;2.85;;;11.80;97.10;;;;;;5095613;28;20437;-70
2023/07/23 14:20:25;;;;;;;8.55;2.75;;;11.80;97.20;;;;;;5094261;28;20402;-70
2023/07/23 14:22:52;;;;;;;14.35;3.03;;;11.80;97.20;;;;;;5094539;28;20115;-70
2023/07/23 14:25:20;;;;;;;9.60;2.85;;;11.80;97.20;;;;;;5077588;28;20501;-71
2023/07/23 14:27:47;;;;;;;9.98;3.13;;;11.80;97.20;;;;;;5095398;28;20439;-70
2023/07/23 14:30:16;;;;;;;11.77;2.67;;;11.80;97.20;;;;;;5095121;28;20083;-70
2023/07/23 14:32:43;;;;;;;8.52;2.33;;;11.80;97.20;;;;;;5092133;28;20036;-70
2023/07/23 14:35:11;;;;;;;10.73;2.13;;;11.80;97.30;;;;;;5095499;28;20385;-70
2023/07/23 14:37:38;;;;;;;6.60;2.35;;;11.80;97.20;;;;;;5077171;28;20044;-70
2023/07/23 18:55:31;;;;;;;6.88;2.33;;;10.90;97.80;;;;;;5093037;28;20101;-72
2023/07/23 18:57:58;;;;;;;7.60;2.20;;;10.90;97.80;;;;;;5085291;28;20449;-73
2023/07/23 19:00:26;;;;;;;8.50;2.53;;;10.90;97.80;;;;;;5082190;28;20099;-72
2023/07/23 19:02:53;;;;;;;11.10;2.10;;;11.00;97.80;;;;;;5094834;28;20036;-72
2023/07/23 19:05:20;;;;;;;9.93;2.28;;;10.90;97.90;;;;;;5075735;28;20061;-72
2023/07/23 19:07:47;;;;;;;8.60;2.40;;;10.90;97.80;;;;;;5093435;28;20032;-72
2023/07/23 19:10:14;;;;;;;10.25;3.05;;;10.90;97.80;;;;;;5093459;28;20540;-71
2023/07/23 19:12:42;;;;;;;10.25;2.58;;;10.90;97.90;;;;;;5093940;28;20074;-71
2023/07/23 19:15:09;;;;;;;8.73;2.13;;;10.90;97.90;;;;;;5093913;28;20169;-70
2023/07/23 19:17:37;;;;;;;8.90;2.20;;;10.90;97.80;;;;;;5093361;28;20391;-71
2023/07/23 19:20:05;;;;;;;9.57;2.10;;;10.90;97.80;;;;;;5093536;28;20073;-72
2023/07/23 19:22:32;;;;;;;10.80;2.40;;;10.90;97.80;;;;;;5094292;28;20036;-71
2023/07/23 19:24:59;;;;;;;8.35;2.20;;;10.90;97.80;;;;;;5093504;28;20032;-71
2023/07/23 19:27:26;;;;;;;6.10;2.00;;;10.80;97.80;;;;;;5093643;28;20563;-71
2023/07/23 19:29:53;;;;;;;6.25;2.15;;;10.80;97.80;;;;;;5102454;28;20089;-71
2023/07/23 19:32:21;;;;;;;8.80;2.20;;;10.80;97.80;;;;;;5114032;28;20036;-71
2023/07/23 19:34:48;;;;;;;10.75;2.60;;;10.90;97.90;;;;;;5092203;28;20062;-71
2023/07/23 19:37:15;;;;;;;10.07;2.13;;;10.90;97.90;;;;;;5094331;28;20517;-70
2023/07/23 19:39:44;;;;;;;8.82;1.90;;;10.90;97.90;;;;;;5094104;28;20024;-71
2023/07/23 19:42:13;;;;;;;8.75;2.40;;;10.90;97.90;;;;;;5094195;28;20040;-70
2023/07/23 19:44:41;;;;;;;8.93;2.10;;;10.90;97.90;;;;;;5092473;28;20036;-70
2023/07/23 19:47:08;;;;;;;6.82;2.17;;;10.90;97.90;;;;;;5093654;28;20090;-70
2023/07/23 19:49:36;;;;;;;10.73;2.55;;;10.90;97.90;;;;;;5093808;28;20052;-70
2023/07/23 19:52:03;;;;;;;12.65;2.45;;;10.90;97.80;;;;;;5093981;28;20082;-70
2023/07/23 22:12:57;;;;;;;16.90;3.88;;;11.20;98.30;;;;;;5109167;28;20160;-70
2023/07/23 22:15:24;;;;;;;9.65;3.30;;;11.20;98.30;;;;;;5115897;28;20123;-71
2023/07/23 22:17:51;;;;;;;10.90;3.03;;;11.20;98.30;;;;;;5114550;28;20116;-71
2023/07/23 22:20:19;;;;;;;15.52;3.38;;;11.20;98.30;;;;;;5114032;28;20039;-70
2023/07/23 22:22:46;;;;;;;13.55;3.40;;;11.30;98.30;;;;;;5115785;28;20034;-70
2023/07/23 22:25:14;;;;;;;16.08;3.40;;;11.30;98.40;;;;;;5115466;28;20027;-71
2023/07/23 22:27:41;;;;;;;13.93;3.60;;;11.50;98.40;;;;;;5115876;28;20023;-71
2023/07/23 22:30:09;;;;;;;14.32;3.47;;;11.60;98.40;;;;;;5110126;27;20066;-71
2023/07/23 22:32:36;;;;;;;12.35;3.00;;;11.70;98.40;;;;;;5115678;28;20024;-71
2023/07/23 22:35:03;;;;;;;13.57;3.40;;;11.70;98.50;;;;;;5115558;28;20028;-70
2023/07/23 22:37:30;;;;;;;16.52;3.90;;;11.80;98.50;;;;;;5114628;28;20485;-70
2023/07/23 22:39:58;;;;;;;14.60;3.28;;;11.90;98.50;;;;;;5114255;28;20038;-70
2023/07/23 22:42:25;;;;;;;13.35;3.47;;;12.00;98.50;;;;;;5097025;28;20517;-70
2023/07/23 22:44:52;;;;;;;13.10;3.25;;;12.10;98.50;;;;;;5115551;28;20032;-70
2023/07/23 22:47:19;;;;;;;17.05;3.05;;;12.10;98.50;;;;;;5114862;28;20122;-70
2023/07/23 22:49:46;;;;;;;12.90;3.20;;;12.10;98.50;;;;;;5114601;28;20107;-69
2023/07/23 22:52:14;;;;;;;11.48;3.05;;;12.10;98.50;;;;;;5115419;28;20055;-70
2023/07/23 22:54:41;;;;;;;12.63;3.15;;;12.20;98.50;;;;;;5115640;28;20032;-70
2023/07/23 22:57:08;;;;;;;14.52;3.10;;;12.20;98.50;;;;;;5115094;28;20500;-70
2023/07/23 22:59:36;;;;;;;8.77;2.53;;;12.20;98.50;;;;;;5115253;28;20032;-69
2023/07/23 23:02:03;;;;;;;11.85;2.83;;;12.20;98.50;;;;;;5114896;28;20517;-72
2023/07/23 23:04:31;;;;;;;15.85;3.35;;;12.20;98.50;;;;;;5114855;28;20069;-70
2023/07/23 23:06:58;;;;;;;11.65;3.22;;;12.20;98.50;;;;;;5115334;28;20101;-70
2023/07/23 23:09:25;;;;;;;17.17;3.58;;;12.20;98.50;;;;;;5114746;28;20039;-71
2023/07/23 23:11:52;;;;;;;19.60;3.85;;;12.30;98.50;;;;;;5114587;28;20034;-70
